Cerritos, California
Current Conditions -  °F | °C
As of 9:53 PM on Thursday 18 Dec 2014 (Local Time) from KFUL Reporting Station
Clear Clear  
Wind Chill: 53°   Ceiling: Unl
Heat Index: 53°   Visibility: 10mi
Dew Point: 48°   Wind: 0mph
Humidity: 83%   Direction: NA
Pressure: 30.21"   Gusts: NA
Location:  33.87°N, 118.06°W
Report Text: KFUL 190553Z 00000KT 10SM CLR 12/09 A3021 RMK AO2 SLP230 T01170089 10172 20117 51009
Loading
Personal Weather Stations






























Interactive Weather Map New forecast layout! Learn more

10-Day Weather Forecast

Advertisements
Track Severe Weather on mobile